Time;durP1;ratioP1;P1;durP2;ratioP2;P2;SDS_P1;SDS_P2;PMS_P1;PMS_P2;Temp;Humidity;BMP_temperature;BMP_pressure;BME280_temperature;BME280_humidity;BME280_pressure;Samples;Min_cycle;Max_cycle;Signal;HPM_P1;HPM_P2
2021/05/06 00:03:50;;;;;;;2.53;1.10;;;21.60;41.80;;;;;;5025566;28;20065;-62
2021/05/06 00:32:35;;;;;;;2.88;1.10;;;21.50;41.80;;;;;;5017325;28;20041;-60
2021/05/06 00:35:00;;;;;;;1.85;1.00;;;21.50;41.80;;;;;;5038141;28;20024;-61
2021/05/06 00:37:26;;;;;;;2.40;1.20;;;21.50;41.80;;;;;;5045226;28;20452;-61
2021/05/06 00:40:03;;;;;;;3.38;1.10;;;21.50;41.80;;;;;;5031838;28;20535;-59
2021/05/06 01:06:47;;;;;;;2.83;1.17;;;21.40;41.80;;;;;;5039317;28;20082;-60
2021/05/06 01:09:14;;;;;;;1.90;0.90;;;21.40;41.70;;;;;;5041496;28;20125;-60
2021/05/06 01:11:46;;;;;;;2.75;1.10;;;21.40;41.80;;;;;;5037835;28;20033;-61
2021/05/06 01:14:11;;;;;;;1.50;0.98;;;21.40;41.70;;;;;;5028916;28;20030;-60
2021/05/06 01:16:37;;;;;;;2.60;1.20;;;21.40;41.80;;;;;;5043856;28;20481;-62
2021/05/06 01:19:03;;;;;;;1.55;0.90;;;21.40;41.70;;;;;;5043800;28;20029;-60
2021/05/06 01:21:29;;;;;;;1.58;0.90;;;21.40;41.70;;;;;;5044064;28;20040;-60
2021/05/06 01:23:55;;;;;;;1.65;0.90;;;21.40;41.70;;;;;;5046039;28;20354;-61
2021/05/06 01:26:34;;;;;;;2.38;1.20;;;21.30;41.70;;;;;;5041185;28;20029;-61
2021/05/06 01:29:03;;;;;;;1.42;0.98;;;21.30;41.70;;;;;;5037671;28;20028;-61
2021/05/06 01:31:33;;;;;;;;;;;21.30;41.70;;;;;;5037443;28;20095;-61
2021/05/06 01:36:34;;;;;;;2.85;1.58;;;21.30;41.70;;;;;;5044276;28;20033;-62
2021/05/06 01:39:33;;;;;;;2.03;0.90;;;21.30;41.70;;;;;;5042090;28;20064;-60
2021/05/06 01:42:14;;;;;;;1.52;0.90;;;21.30;41.80;;;;;;5044586;28;20772;-60
2021/05/06 01:58:04;;;;;;;2.47;1.10;;;21.20;41.70;;;;;;4963836;28;20042;-60
2021/05/06 02:00:44;;;;;;;2.88;0.80;;;21.20;41.70;;;;;;5016917;28;20042;-61
2021/05/06 02:03:09;;;;;;;1.70;0.90;;;21.30;41.70;;;;;;5040642;28;20029;-61
2021/05/06 02:05:35;;;;;;;1.75;0.90;;;21.20;41.70;;;;;;5039076;28;20056;-60
2021/05/06 02:08:02;;;;;;;1.63;0.90;;;21.20;41.70;;;;;;5042029;28;20124;-60
2021/05/06 02:10:28;;;;;;;2.85;1.10;;;21.20;41.70;;;;;;5038277;28;20025;-60
2021/05/06 02:12:54;;;;;;;1.85;0.90;;;21.20;41.70;;;;;;5044053;28;20037;-60
2021/05/06 02:17:46;;;;;;;2.65;1.23;;;21.20;41.70;;;;;;5042804;28;20472;-60
2021/05/06 02:20:13;;;;;;;1.67;0.98;;;21.20;41.70;;;;;;5038904;28;20038;-60
2021/05/06 02:22:39;;;;;;;2.03;1.10;;;21.20;41.70;;;;;;5041189;28;20436;-61
2021/05/06 02:25:06;;;;;;;2.40;0.90;;;21.20;41.70;;;;;;5032134;28;20037;-61
2021/05/06 02:27:31;;;;;;;2.08;0.90;;;21.20;41.70;;;;;;5042125;28;20081;-60
2021/05/06 02:29:57;;;;;;;2.50;1.00;;;21.20;41.70;;;;;;5038761;28;20029;-61
2021/05/06 02:32:23;;;;;;;2.35;0.98;;;21.10;41.70;;;;;;5037342;28;20119;-60
2021/05/06 02:34:48;;;;;;;1.52;0.90;;;21.10;41.60;;;;;;5043034;28;20100;-60
2021/05/06 02:37:15;;;;;;;2.75;1.00;;;21.10;42.20;;;;;;5037301;28;20143;-61
2021/05/06 02:39:41;;;;;;;1.25;0.90;;;21.10;41.60;;;;;;5033823;28;20041;-60
2021/05/06 02:42:06;;;;;;;1.77;0.90;;;21.10;41.70;;;;;;5031293;28;20352;-59
2021/05/06 02:44:35;;;;;;;1.20;0.80;;;21.10;41.60;;;;;;5044063;28;20419;-61
2021/05/06 02:47:01;;;;;;;2.50;0.80;;;21.10;41.60;;;;;;5041460;28;20229;-61
2021/05/06 02:49:27;;;;;;;1.60;0.90;;;21.10;41.70;;;;;;5041496;28;20241;-61
2021/05/06 02:51:56;;;;;;;3.85;1.13;;;21.00;41.60;;;;;;5040839;28;20113;-60
2021/05/06 02:54:22;;;;;;;1.85;1.00;;;21.10;41.60;;;;;;5043621;28;20108;-60
2021/05/06 03:02:43;;;;;;;1.63;0.90;;;21.10;41.70;;;;;;5032421;28;20566;-59
2021/05/06 03:04:45;;;;;;;2.05;1.20;;;21.00;41.60;;;;;;5034923;28;20124;-61
2021/05/06 03:07:13;;;;;;;1.70;0.93;;;21.00;41.60;;;;;;5041707;28;20322;-61
2021/05/06 03:22:48;;;;;;;2.20;0.90;;;21.00;41.60;;;;;;5042542;28;20494;-60
2021/05/06 03:25:17;;;;;;;1.35;0.80;;;21.00;41.60;;;;;;5033621;28;20109;-60
2021/05/06 03:28:07;;;;;;;1.90;0.73;;;21.00;41.60;;;;;;5026737;28;20400;-61
2021/05/06 03:36:12;;;;;;;1.20;0.75;;;20.90;41.60;;;;;;5033577;28;20432;-61
2021/05/06 04:16:19;;;;;;;0.90;0.65;;;20.80;41.60;;;;;;5029580;28;20179;-61
2021/05/06 04:18:56;;;;;;;1.83;0.80;;;20.80;41.60;;;;;;5036050;28;20024;-62
2021/05/06 04:26:53;;;;;;;1.73;0.88;;;20.80;41.60;;;;;;5028727;28;20397;-61
2021/05/06 04:37:32;;;;;;;1.40;0.93;;;20.80;41.60;;;;;;5046705;28;20113;-61
2021/05/06 04:56:08;;;;;;;1.63;0.80;;;20.70;41.60;;;;;;5047079;28;20035;-60
2021/05/06 05:06:25;;;;;;;1.13;0.70;;;20.70;41.70;;;;;;5046793;28;20361;-60
2021/05/06 05:09:04;;;;;;;2.28;0.80;;;20.70;41.70;;;;;;5037911;28;20207;-61
2021/05/06 05:27:30;;;;;;;1.80;0.90;;;20.70;42.00;;;;;;5044759;28;20040;-60
2021/05/06 05:29:55;;;;;;;1.15;0.65;;;20.70;42.00;;;;;;5042436;28;20021;-60
2021/05/06 05:32:21;;;;;;;1.73;0.80;;;20.70;42.00;;;;;;5045521;28;20033;-60
2021/05/06 05:35:00;;;;;;;1.90;0.88;;;20.70;42.00;;;;;;5045429;28;20475;-59
2021/05/06 05:37:34;;;;;;;1.05;0.80;;;20.60;42.00;;;;;;5045707;28;20037;-61
2021/05/06 05:40:15;;;;;;;2.15;0.80;;;20.60;42.00;;;;;;5034257;28;20041;-60
2021/05/06 05:42:51;;;;;;;2.58;0.80;;;20.70;42.10;;;;;;5039869;28;20307;-62
2021/05/06 05:55:45;;;;;;;1.83;0.90;;;20.60;42.20;;;;;;5044527;28;20217;-61
2021/05/06 05:58:11;;;;;;;2.08;0.82;;;20.60;42.20;;;;;;5040762;28;20504;-61
2021/05/06 06:00:36;;;;;;;1.08;0.70;;;20.60;42.20;;;;;;5028517;28;20048;-60
2021/05/06 06:03:02;;;;;;;2.08;0.85;;;20.60;42.30;;;;;;5036834;28;20041;-60
2021/05/06 06:05:27;;;;;;;2.22;0.90;;;20.60;42.30;;;;;;5032099;28;20098;-60
2021/05/06 06:07:53;;;;;;;1.85;0.90;;;20.70;42.40;;;;;;5043955;28;20221;-62
2021/05/06 06:10:19;;;;;;;1.83;0.77;;;20.70;42.30;;;;;;5040266;28;20104;-62
2021/05/06 06:12:45;;;;;;;3.30;1.10;;;20.70;42.40;;;;;;5033297;28;20035;-61
2021/05/06 06:15:19;;;;;;;1.75;0.80;;;20.80;42.50;;;;;;5028829;28;20080;-60
2021/05/06 06:17:45;;;;;;;1.42;0.77;;;20.80;42.40;;;;;;5027217;28;20891;-61
2021/05/06 06:20:12;;;;;;;1.45;0.80;;;20.80;42.40;;;;;;5040915;28;20063;-61
2021/05/06 06:22:37;;;;;;;1.45;0.82;;;20.90;42.40;;;;;;5045556;28;20097;-61
2021/05/06 06:25:04;;;;;;;2.05;0.80;;;20.90;42.40;;;;;;5032652;28;20049;-61
2021/05/06 06:27:31;;;;;;;2.80;0.70;;;20.90;42.40;;;;;;5045972;28;20037;-62
2021/05/06 06:29:57;;;;;;;2.35;0.90;;;21.00;43.00;;;;;;5047017;28;20112;-60
2021/05/06 06:32:22;;;;;;;1.83;0.88;;;20.90;42.30;;;;;;5030048;28;20128;-60
2021/05/06 06:34:48;;;;;;;2.38;0.82;;;21.00;42.30;;;;;;5037982;28;20413;-60
2021/05/06 06:37:15;;;;;;;1.60;0.80;;;21.00;42.80;;;;;;5041654;28;20068;-61
2021/05/06 06:39:41;;;;;;;1.35;0.70;;;21.00;42.30;;;;;;5035998;28;20081;-61
2021/05/06 06:42:10;;;;;;;2.03;0.80;;;21.10;42.20;;;;;;5033699;28;20123;-61
2021/05/06 06:44:36;;;;;;;;;;;21.10;42.30;;;;;;5043478;28;20032;-61
2021/05/06 06:47:07;;;;;;;1.50;0.70;;;21.10;42.40;;;;;;5044367;28;19932;-61
2021/05/06 06:49:34;;;;;;;2.20;0.90;;;21.20;42.20;;;;;;5041806;28;20481;-60
2021/05/06 06:52:01;;;;;;;2.10;0.80;;;21.20;42.10;;;;;;5044886;28;20017;-60
2021/05/06 06:54:27;;;;;;;1.63;0.80;;;21.20;42.00;;;;;;5043756;28;20490;-60
2021/05/06 06:56:54;;;;;;;1.80;0.82;;;21.20;42.00;;;;;;5032871;28;20029;-60
2021/05/06 06:59:19;;;;;;;2.40;0.70;;;21.20;42.00;;;;;;5024597;28;20029;-58
2021/05/06 07:01:45;;;;;;;1.77;0.70;;;21.30;42.20;;;;;;5036511;28;20033;-60
2021/05/06 07:04:11;;;;;;;4.55;0.80;;;21.30;42.20;;;;;;5043012;28;20065;-59
2021/05/06 07:06:37;;;;;;;3.08;1.00;;;21.30;42.20;;;;;;5044857;28;20021;-60
2021/05/06 07:09:05;;;;;;;2.47;0.90;;;21.30;41.90;;;;;;5044849;28;20037;-60
2021/05/06 07:11:30;;;;;;;1.58;0.80;;;21.30;41.90;;;;;;5031784;28;20091;-59
2021/05/06 07:13:56;;;;;;;1.95;1.00;;;21.40;42.00;;;;;;5033877;28;20029;-60
2021/05/06 07:16:22;;;;;;;2.33;1.00;;;21.40;41.80;;;;;;5044436;28;20027;-59
2021/05/06 07:18:47;;;;;;;2.42;0.80;;;21.40;41.80;;;;;;5043873;28;20021;-59
2021/05/06 07:21:13;;;;;;;1.83;0.73;;;21.40;41.80;;;;;;5040479;28;20029;-58
2021/05/06 07:23:38;;;;;;;1.90;0.82;;;21.40;41.80;;;;;;5042500;28;20401;-59
2021/05/06 07:26:04;;;;;;;2.05;0.80;;;21.50;41.70;;;;;;5029644;28;20135;-59
2021/05/06 07:28:35;;;;;;;2.05;0.90;;;21.50;41.60;;;;;;5044494;28;20091;-62
2021/05/06 07:31:02;;;;;;;1.92;0.82;;;21.50;41.60;;;;;;5036019;28;20033;-63
2021/05/06 07:33:29;;;;;;;2.00;0.90;;;21.50;41.60;;;;;;5040758;28;20097;-61
2021/05/06 07:35:56;;;;;;;1.42;0.90;;;21.50;41.60;;;;;;5033756;28;20445;-59
2021/05/06 07:38:23;;;;;;;1.45;0.80;;;21.50;41.50;;;;;;5028211;28;20139;-59
2021/05/06 07:40:49;;;;;;;1.65;0.77;;;21.50;41.50;;;;;;5043133;28;20037;-60
2021/05/06 07:43:15;;;;;;;3.47;0.93;;;21.50;41.50;;;;;;5039722;28;20136;-62
2021/05/06 07:45:41;;;;;;;1.88;0.80;;;21.50;41.50;;;;;;5031651;28;20045;-60
2021/05/06 07:48:07;;;;;;;3.35;0.82;;;21.60;41.50;;;;;;5047276;28;20427;-60
2021/05/06 07:50:33;;;;;;;1.23;0.75;;;21.60;41.50;;;;;;5032716;28;20223;-60
2021/05/06 07:53:05;;;;;;;2.17;0.90;;;21.50;41.40;;;;;;5045152;28;20025;-59
2021/05/06 07:55:32;;;;;;;1.70;0.90;;;21.60;41.50;;;;;;5027615;28;20099;-60
2021/05/06 07:57:58;;;;;;;2.13;0.80;;;21.60;41.40;;;;;;5044107;28;20044;-60
2021/05/06 08:00:26;;;;;;;1.65;0.80;;;21.60;41.30;;;;;;5043222;28;20048;-59
2021/05/06 08:02:52;;;;;;;1.30;0.80;;;21.70;41.30;;;;;;5043009;28;20037;-59
2021/05/06 08:05:18;;;;;;;2.38;0.75;;;21.70;41.30;;;;;;5032823;28;20021;-61
2021/05/06 08:07:43;;;;;;;1.58;0.90;;;21.60;41.20;;;;;;5044564;28;20040;-60
2021/05/06 08:10:11;;;;;;;1.90;0.90;;;21.70;41.60;;;;;;5041086;28;20102;-61
2021/05/06 08:12:37;;;;;;;1.08;0.73;;;21.70;41.10;;;;;;5028152;28;20030;-58
2021/05/06 08:15:07;;;;;;;1.55;0.90;;;21.70;41.10;;;;;;5027170;28;20468;-60
2021/05/06 08:17:37;;;;;;;1.63;0.70;;;21.70;41.10;;;;;;5023950;28;20128;-59
2021/05/06 08:20:05;;;;;;;1.83;0.90;;;21.70;41.10;;;;;;5031964;28;20053;-59
2021/05/06 08:22:31;;;;;;;1.80;0.90;;;21.70;41.10;;;;;;5043117;28;20063;-57
2021/05/06 08:24:57;;;;;;;1.88;1.00;;;21.80;41.10;;;;;;5041211;28;20069;-60
2021/05/06 08:27:22;;;;;;;3.15;1.10;;;21.80;41.00;;;;;;5029794;28;20037;-59
2021/05/06 08:29:48;;;;;;;1.48;0.85;;;21.80;41.10;;;;;;5027534;28;20036;-60
2021/05/06 08:32:13;;;;;;;1.80;0.90;;;21.80;41.10;;;;;;5041371;28;20171;-59
2021/05/06 08:34:39;;;;;;;1.60;0.75;;;21.80;41.10;;;;;;5039301;28;20438;-59
2021/05/06 08:37:05;;;;;;;1.50;0.88;;;21.90;41.00;;;;;;5042858;28;20033;-58
2021/05/06 08:39:30;;;;;;;1.50;0.95;;;21.90;41.00;;;;;;5028896;28;20481;-60
2021/05/06 08:41:59;;;;;;;1.77;1.00;;;21.90;41.00;;;;;;5038634;28;20021;-59
2021/05/06 08:44:29;;;;;;;2.13;0.85;;;21.90;41.00;;;;;;5044415;28;20474;-60
2021/05/06 08:47:06;;;;;;;1.20;0.80;;;21.90;41.00;;;;;;5046341;28;20037;-60
2021/05/06 08:49:32;;;;;;;1.85;0.80;;;21.90;41.00;;;;;;5047432;28;20029;-59
2021/05/06 08:51:59;;;;;;;2.30;1.17;;;21.90;41.00;;;;;;5041083;28;20182;-57
2021/05/06 08:54:25;;;;;;;2.00;1.00;;;22.00;41.10;;;;;;5037286;28;20033;-60
2021/05/06 08:56:52;;;;;;;1.40;0.82;;;22.00;40.90;;;;;;5035071;28;20116;-61
2021/05/06 08:59:17;;;;;;;1.65;0.90;;;22.00;40.90;;;;;;5027606;28;20037;-58
2021/05/06 09:01:43;;;;;;;1.85;1.00;;;22.00;40.90;;;;;;5036159;28;20155;-58
2021/05/06 09:04:09;;;;;;;1.80;0.90;;;22.00;40.90;;;;;;5046317;28;20037;-59
2021/05/06 09:06:34;;;;;;;1.88;0.90;;;22.00;40.80;;;;;;5047412;28;20039;-59
2021/05/06 09:09:03;;;;;;;1.50;0.90;;;22.00;40.80;;;;;;5044809;28;20036;-60
2021/05/06 09:11:37;;;;;;;1.50;0.90;;;22.00;40.80;;;;;;5042126;28;20083;-59
2021/05/06 09:14:05;;;;;;;2.03;0.93;;;22.00;40.80;;;;;;5029062;28;20681;-59
2021/05/06 09:16:41;;;;;;;1.95;0.80;;;22.00;40.70;;;;;;5040994;28;20104;-59
2021/05/06 09:19:09;;;;;;;1.83;0.80;;;22.10;40.80;;;;;;5046183;28;20052;-59
2021/05/06 09:21:38;;;;;;;1.23;0.80;;;22.10;40.80;;;;;;5028340;28;20422;-59
2021/05/06 09:24:10;;;;;;;2.30;0.90;;;22.10;40.70;;;;;;5040641;28;20638;-59
2021/05/06 09:26:37;;;;;;;1.73;0.75;;;22.10;40.70;;;;;;5039626;28;20098;-58
2021/05/06 09:29:06;;;;;;;2.10;1.02;;;22.10;40.70;;;;;;5041778;28;20025;-57
2021/05/06 09:31:39;;;;;;;1.20;0.70;;;22.10;40.70;;;;;;5045837;28;20045;-60
2021/05/06 09:34:08;;;;;;;1.58;0.85;;;22.10;40.60;;;;;;5045057;28;20037;-60
2021/05/06 09:36:34;;;;;;;1.55;0.70;;;22.10;40.70;;;;;;5035499;28;20365;-59
2021/05/06 09:39:00;;;;;;;1.73;0.90;;;22.10;40.70;;;;;;5042558;28;20036;-58
2021/05/06 09:41:34;;;;;;;1.42;0.80;;;22.10;41.20;;;;;;5044430;28;20383;-59
2021/05/06 09:44:18;;;;;;;1.73;0.90;;;22.20;40.70;;;;;;5045572;28;20047;-59
2021/05/06 09:46:56;;;;;;;2.10;0.80;;;22.20;40.70;;;;;;5045375;28;20305;-59
2021/05/06 09:49:22;;;;;;;1.15;0.80;;;22.20;40.70;;;;;;5040924;28;20565;-58
2021/05/06 09:51:57;;;;;;;2.45;1.02;;;22.20;40.70;;;;;;5039468;28;20349;-59
2021/05/06 09:54:28;;;;;;;1.48;0.80;;;22.20;40.60;;;;;;5033554;28;20483;-59
2021/05/06 09:57:01;;;;;;;1.48;0.80;;;22.20;40.60;;;;;;5030239;28;20025;-59
2021/05/06 09:59:29;;;;;;;1.15;0.70;;;22.20;40.60;;;;;;5039973;28;20434;-58
2021/05/06 10:02:17;;;;;;;1.60;0.80;;;22.20;40.60;;;;;;5028678;28;20041;-60
2021/05/06 10:04:44;;;;;;;1.83;0.70;;;22.30;40.50;;;;;;5041460;28;20414;-60
2021/05/06 10:07:11;;;;;;;1.75;0.85;;;22.30;40.50;;;;;;5031761;28;20025;-60
2021/05/06 10:09:55;;;;;;;1.10;0.70;;;22.30;41.00;;;;;;5040990;28;20025;-59
2021/05/06 10:12:22;;;;;;;1.30;0.80;;;22.30;40.50;;;;;;5025657;28;20610;-59
2021/05/06 10:14:49;;;;;;;1.45;0.90;;;22.30;40.50;;;;;;5024285;28;20483;-58
2021/05/06 10:17:19;;;;;;;1.90;0.85;;;22.30;40.50;;;;;;5036623;28;20387;-59
2021/05/06 10:19:45;;;;;;;;;;;22.30;40.50;;;;;;5044072;28;20385;-59
2021/05/06 10:22:12;;;;;;;2.60;1.00;;;22.30;40.40;;;;;;5029193;28;20317;-59
2021/05/06 10:24:45;;;;;;;1.50;0.82;;;22.30;40.40;;;;;;5038925;28;20577;-57
2021/05/06 10:27:17;;;;;;;1.52;0.80;;;22.30;40.40;;;;;;5042801;28;20116;-59
2021/05/06 10:29:43;;;;;;;1.63;0.80;;;22.30;40.30;;;;;;5045877;28;20210;-60
2021/05/06 10:32:14;;;;;;;1.83;0.90;;;22.30;40.40;;;;;;5036441;28;20167;-61
2021/05/06 10:34:42;;;;;;;1.90;0.85;;;22.30;40.30;;;;;;5039940;28;20459;-59
2021/05/06 10:37:09;;;;;;;1.90;0.82;;;22.30;40.30;;;;;;5041836;28;20287;-57
2021/05/06 10:39:42;;;;;;;1.60;0.80;;;22.30;40.90;;;;;;5030298;28;20020;-59
2021/05/06 10:42:29;;;;;;;1.20;0.80;;;22.30;40.40;;;;;;5033940;28;20035;-59
2021/05/06 10:45:00;;;;;;;1.83;0.80;;;22.30;40.30;;;;;;5040718;28;20052;-58
2021/05/06 10:47:46;;;;;;;1.83;0.80;;;22.40;40.40;;;;;;5041115;28;20530;-59
2021/05/06 10:50:33;;;;;;;1.25;0.82;;;22.30;40.20;;;;;;5037347;28;20044;-59
2021/05/06 10:52:59;;;;;;;1.42;0.90;;;22.40;40.20;;;;;;5043949;28;20435;-59
2021/05/06 10:55:47;;;;;;;1.15;0.70;;;22.40;40.40;;;;;;5042318;28;20020;-60
2021/05/06 10:58:31;;;;;;;0.90;0.70;;;22.30;40.30;;;;;;5029681;28;20110;-60
2021/05/06 11:01:08;;;;;;;1.48;0.90;;;22.40;40.40;;;;;;5032192;28;20037;-58
2021/05/06 11:03:34;;;;;;;3.17;1.00;;;22.40;40.20;;;;;;5037335;28;20025;-59
2021/05/06 11:06:00;;;;;;;1.58;0.90;;;22.40;40.20;;;;;;5048523;28;20061;-58
2021/05/06 11:08:28;;;;;;;1.38;0.80;;;22.40;40.20;;;;;;5049031;28;20036;-59
2021/05/06 11:11:13;;;;;;;1.75;0.73;;;22.40;40.20;;;;;;5043943;28;20029;-59
2021/05/06 11:14:03;;;;;;;1.30;0.80;;;22.50;40.30;;;;;;5038349;28;20052;-60
2021/05/06 11:16:29;;;;;;;1.30;0.73;;;22.40;40.20;;;;;;5045208;28;20028;-59
2021/05/06 11:18:57;;;;;;;2.05;0.90;;;22.50;40.40;;;;;;5045831;28;20386;-59
2021/05/06 11:21:33;;;;;;;1.52;0.90;;;22.50;40.30;;;;;;5043803;28;20040;-62
2021/05/06 11:24:18;;;;;;;1.20;0.80;;;22.40;40.20;;;;;;5040416;28;20033;-62
2021/05/06 11:27:15;;;;;;;1.75;0.75;;;22.40;40.10;;;;;;5038972;28;20044;-62
2021/05/06 11:29:43;;;;;;;1.35;0.70;;;22.50;40.20;;;;;;5037818;28;20049;-61
2021/05/06 11:32:31;;;;;;;2.38;1.08;;;22.40;40.20;;;;;;5038142;28;20078;-63
2021/05/06 11:34:57;;;;;;;0.82;0.70;;;22.40;40.20;;;;;;5041300;28;20336;-61
2021/05/06 11:37:28;;;;;;;1.80;0.90;;;22.40;40.20;;;;;;5045844;28;20059;-59
2021/05/06 11:40:05;;;;;;;2.13;0.80;;;22.40;40.20;;;;;;5046619;28;20036;-62
2021/05/06 11:42:37;;;;;;;1.67;0.80;;;22.40;40.30;;;;;;5037755;28;20033;-59
2021/05/06 11:45:13;;;;;;;2.22;1.15;;;22.40;40.40;;;;;;5033821;28;20120;-60
2021/05/06 11:47:40;;;;;;;1.73;0.80;;;22.30;40.40;;;;;;5037500;28;20033;-62
2021/05/06 11:50:22;;;;;;;2.20;1.02;;;22.40;40.60;;;;;;5042353;28;20026;-59
2021/05/06 11:52:48;;;;;;;3.72;1.70;;;22.30;40.70;;;;;;5038583;28;20048;-62
2021/05/06 11:55:34;;;;;;;4.13;1.42;;;22.40;41.00;;;;;;5041412;28;20021;-62
2021/05/06 11:58:01;;;;;;;4.18;1.80;;;22.40;40.80;;;;;;5045410;28;20151;-61
2021/05/06 12:00:28;;;;;;;4.18;1.65;;;22.40;40.80;;;;;;5044762;28;20052;-61
2021/05/06 12:02:59;;;;;;;4.25;1.70;;;22.40;40.60;;;;;;5037399;28;20032;-59
2021/05/06 12:05:56;;;;;;;3.85;1.90;;;22.40;40.60;;;;;;5036738;28;20128;-60
2021/05/06 12:08:24;;;;;;;3.83;1.73;;;22.50;40.70;;;;;;5045281;28;20025;-61
2021/05/06 12:10:51;;;;;;;4.13;1.70;;;22.40;40.50;;;;;;5032271;28;20032;-63
2021/05/06 12:13:24;;;;;;;4.07;1.70;;;22.40;40.40;;;;;;5035727;28;20030;-62
2021/05/06 12:15:50;;;;;;;4.18;1.58;;;22.40;40.40;;;;;;5038677;28;20017;-62
2021/05/06 12:18:21;;;;;;;4.13;1.50;;;22.40;40.20;;;;;;5029158;28;20461;-62
2021/05/06 12:20:57;;;;;;;3.83;1.80;;;22.50;40.30;;;;;;5026218;28;20041;-62
2021/05/06 12:23:26;;;;;;;3.50;1.60;;;22.40;40.20;;;;;;5044294;28;20447;-62
2021/05/06 12:25:52;;;;;;;3.33;1.70;;;22.40;40.20;;;;;;5043911;28;20037;-62
2021/05/06 12:28:18;;;;;;;3.88;1.88;;;22.50;40.20;;;;;;5031901;28;20760;-61
2021/05/06 12:30:44;;;;;;;3.63;1.58;;;22.50;40.20;;;;;;5029139;28;20052;-61
2021/05/06 12:33:10;;;;;;;3.88;1.60;;;22.50;40.20;;;;;;5037596;28;20032;-61
2021/05/06 12:35:52;;;;;;;3.60;1.77;;;22.50;40.20;;;;;;5025280;28;20090;-62
2021/05/06 12:38:18;;;;;;;3.78;1.70;;;22.50;40.20;;;;;;5036302;28;20106;-61
2021/05/06 12:40:44;;;;;;;3.72;2.00;;;22.50;40.20;;;;;;5042343;28;20051;-61
2021/05/06 12:43:23;;;;;;;3.80;1.73;;;22.50;40.10;;;;;;5037977;28;20434;-62
2021/05/06 12:46:10;;;;;;;3.63;1.63;;;22.60;40.20;;;;;;5031211;28;20029;-61
2021/05/06 12:48:53;;;;;;;3.28;1.65;;;22.50;40.10;;;;;;5039589;28;20124;-61
2021/05/06 12:51:25;;;;;;;3.95;1.58;;;22.50;39.80;;;;;;5038947;28;20052;-61
2021/05/06 12:54:07;;;;;;;3.58;1.70;;;22.50;39.70;;;;;;5037371;28;20116;-62
2021/05/06 12:56:39;;;;;;;3.40;1.70;;;22.50;39.70;;;;;;5036478;28;20044;-61
2021/05/06 12:59:33;;;;;;;3.83;1.80;;;22.60;39.90;;;;;;5042226;28;20036;-61
2021/05/06 13:02:09;;;;;;;3.35;1.60;;;22.60;40.00;;;;;;5034244;28;20152;-62
2021/05/06 13:04:50;;;;;;;3.67;1.77;;;22.60;40.00;;;;;;5026674;28;20132;-61
2021/05/06 13:07:17;;;;;;;3.95;1.70;;;22.60;40.00;;;;;;5030319;28;20107;-62
2021/05/06 13:09:45;;;;;;;3.33;1.50;;;22.60;40.00;;;;;;5031966;28;20025;-60
2021/05/06 13:12:26;;;;;;;5.53;1.80;;;22.60;40.00;;;;;;5039250;28;20029;-62
2021/05/06 13:14:53;;;;;;;3.88;1.77;;;22.60;40.10;;;;;;5032841;28;20033;-62
2021/05/06 13:17:26;;;;;;;3.50;1.80;;;22.60;39.80;;;;;;5039039;28;20060;-63
2021/05/06 13:19:52;;;;;;;2.92;1.60;;;22.60;39.90;;;;;;5039177;28;20108;-63
2021/05/06 13:22:20;;;;;;;4.43;1.80;;;22.60;39.70;;;;;;5038214;28;20121;-61
2021/05/06 13:24:48;;;;;;;3.55;1.58;;;22.60;39.70;;;;;;5036850;28;20119;-63
2021/05/06 13:27:22;;;;;;;4.05;1.65;;;22.60;39.70;;;;;;5043101;28;20083;-63
2021/05/06 13:30:06;;;;;;;3.83;1.70;;;22.60;39.60;;;;;;5039835;28;20033;-63
2021/05/06 13:32:33;;;;;;;3.58;1.65;;;22.60;39.60;;;;;;5037790;28;20075;-63
2021/05/06 13:34:59;;;;;;;3.65;1.60;;;22.60;39.60;;;;;;5032802;28;20057;-62
2021/05/06 13:37:38;;;;;;;3.17;1.50;;;22.70;39.70;;;;;;5040488;28;20052;-63
2021/05/06 13:40:06;;;;;;;3.28;1.48;;;22.60;39.60;;;;;;5034461;28;20032;-64
2021/05/06 13:42:31;;;;;;;3.25;1.63;;;22.60;39.70;;;;;;5037467;28;20407;-64
2021/05/06 13:44:58;;;;;;;3.72;1.70;;;22.60;39.80;;;;;;5035083;28;20025;-63
2021/05/06 13:47:25;;;;;;;3.03;1.45;;;22.60;39.80;;;;;;5034849;28;20519;-64
2021/05/06 13:49:51;;;;;;;2.80;1.50;;;22.60;39.80;;;;;;5026195;28;20021;-64
2021/05/06 13:52:19;;;;;;;3.55;1.50;;;22.60;39.80;;;;;;5024955;28;20484;-64
2021/05/06 13:54:45;;;;;;;2.78;1.30;;;22.60;39.80;;;;;;5015700;28;20041;-61
2021/05/06 13:57:10;;;;;;;4.13;1.90;;;22.60;39.80;;;;;;5036872;28;20018;-63
2021/05/06 13:59:36;;;;;;;4.30;1.73;;;22.60;39.70;;;;;;5020417;28;20598;-64
2021/05/06 14:02:02;;;;;;;4.68;1.60;;;22.60;40.30;;;;;;5025051;28;20037;-64
2021/05/06 14:04:27;;;;;;;3.95;1.50;;;22.60;39.70;;;;;;5037816;28;20062;-64
2021/05/06 14:06:53;;;;;;;3.85;1.70;;;22.70;39.80;;;;;;5030722;28;20025;-63
2021/05/06 14:09:20;;;;;;;4.53;1.65;;;22.70;39.80;;;;;;5031815;28;20135;-64
2021/05/06 14:11:48;;;;;;;2.97;1.40;;;22.60;39.80;;;;;;5037272;28;20037;-64
2021/05/06 14:14:16;;;;;;;3.17;1.50;;;22.70;39.90;;;;;;5031023;28;20052;-63
2021/05/06 14:16:42;;;;;;;4.60;1.60;;;22.70;39.90;;;;;;5040457;28;20276;-63
2021/05/06 14:19:08;;;;;;;3.33;1.60;;;22.70;39.90;;;;;;5040481;28;20043;-63
2021/05/06 14:21:35;;;;;;;3.00;1.50;;;22.60;39.80;;;;;;5036419;28;20033;-63
2021/05/06 14:24:00;;;;;;;2.60;1.40;;;22.70;39.80;;;;;;5026662;28;20125;-62
2021/05/06 14:26:26;;;;;;;3.78;1.50;;;22.70;39.80;;;;;;5038872;28;20139;-63
2021/05/06 14:28:52;;;;;;;3.38;1.40;;;22.70;39.80;;;;;;5041372;28;20045;-63
2021/05/06 14:31:17;;;;;;;3.63;1.60;;;22.70;39.90;;;;;;5035342;28;20491;-62
2021/05/06 14:33:44;;;;;;;3.90;1.50;;;22.70;39.90;;;;;;5036316;28;20041;-63
2021/05/06 14:36:10;;;;;;;3.00;1.45;;;22.70;40.40;;;;;;5028337;28;20386;-62
2021/05/06 14:38:37;;;;;;;2.78;1.50;;;22.70;39.80;;;;;;5035418;28;20032;-63
2021/05/06 14:41:03;;;;;;;2.53;1.27;;;22.70;39.90;;;;;;5041415;28;20099;-62
2021/05/06 14:43:29;;;;;;;3.20;1.60;;;22.70;39.80;;;;;;5043659;28;20025;-62
2021/05/06 14:45:55;;;;;;;3.22;1.60;;;22.70;39.70;;;;;;5025098;28;20033;-62
2021/05/06 14:48:21;;;;;;;2.33;1.17;;;22.70;39.70;;;;;;5037505;28;20336;-63
2021/05/06 14:50:48;;;;;;;2.40;1.40;;;22.70;39.80;;;;;;5032208;28;20045;-61
2021/05/06 14:53:14;;;;;;;3.70;1.38;;;22.70;39.70;;;;;;5033468;28;20337;-61
2021/05/06 14:55:40;;;;;;;3.65;1.50;;;22.70;39.60;;;;;;5030696;28;20032;-61
2021/05/06 14:58:06;;;;;;;2.75;1.50;;;22.70;39.70;;;;;;5033510;28;20449;-61
2021/05/06 15:00:33;;;;;;;3.25;1.40;;;22.70;39.70;;;;;;5029931;28;20137;-61
2021/05/06 15:02:59;;;;;;;3.17;1.38;;;22.70;39.80;;;;;;5018212;28;20117;-62
2021/05/06 15:05:25;;;;;;;3.33;1.30;;;22.60;39.80;;;;;;5014102;28;20497;-64
2021/05/06 15:07:51;;;;;;;2.70;1.45;;;22.60;39.80;;;;;;5014189;28;20033;-61
2021/05/06 15:10:17;;;;;;;3.65;1.40;;;22.60;39.90;;;;;;5016752;28;20022;-63
2021/05/06 15:12:46;;;;;;;3.75;1.38;;;22.60;39.80;;;;;;5013386;28;20499;-62
2021/05/06 15:15:13;;;;;;;4.05;1.63;;;22.60;39.80;;;;;;5015636;28;20037;-62
2021/05/06 15:17:41;;;;;;;3.20;1.30;;;22.60;39.80;;;;;;5017205;28;20038;-63
2021/05/06 15:20:08;;;;;;;1.98;1.27;;;22.60;39.80;;;;;;5015009;28;20034;-63
2021/05/06 15:22:37;;;;;;;2.72;1.40;;;22.50;39.90;;;;;;5017719;28;20457;-63
2021/05/06 15:25:04;;;;;;;4.05;1.23;;;22.60;40.00;;;;;;5011982;28;20103;-63
2021/05/06 15:27:35;;;;;;;2.50;1.38;;;22.50;39.90;;;;;;5013657;28;20785;-62
2021/05/06 15:30:00;;;;;;;3.05;1.45;;;22.50;39.90;;;;;;5014468;28;20040;-63
2021/05/06 15:32:26;;;;;;;2.47;1.25;;;22.50;39.90;;;;;;5010903;28;20045;-62
2021/05/06 15:35:00;;;;;;;4.70;1.40;;;22.50;39.90;;;;;;5003832;28;20044;-62
2021/05/06 15:37:27;;;;;;;2.53;1.20;;;22.50;40.00;;;;;;5014686;28;20507;-62
2021/05/06 15:39:53;;;;;;;2.50;1.13;;;22.50;40.00;;;;;;5015915;28;20041;-63
2021/05/06 15:42:18;;;;;;;3.63;1.38;;;22.40;40.00;;;;;;5016574;28;20030;-62
2021/05/06 15:44:44;;;;;;;4.15;1.30;;;22.40;40.10;;;;;;5009208;28;21963;-63
2021/05/06 15:47:10;;;;;;;4.20;1.30;;;22.40;40.10;;;;;;5015184;28;20038;-61
2021/05/06 15:49:38;;;;;;;3.17;1.30;;;22.40;40.20;;;;;;5015478;28;20064;-61
2021/05/06 15:52:07;;;;;;;2.10;1.13;;;22.30;40.10;;;;;;5018553;28;20028;-61
2021/05/06 15:54:33;;;;;;;3.58;1.33;;;22.30;40.10;;;;;;5023249;28;20082;-63
2021/05/06 15:56:59;;;;;;;2.45;1.40;;;22.40;40.20;;;;;;5021899;28;20033;-62
2021/05/06 15:59:25;;;;;;;2.85;1.23;;;22.30;40.30;;;;;;5019574;28;20060;-61
2021/05/06 16:01:53;;;;;;;3.20;1.38;;;22.30;40.30;;;;;;5031766;28;20133;-61
2021/05/06 16:04:24;;;;;;;4.22;1.35;;;22.30;40.30;;;;;;5034701;28;20114;-62
2021/05/06 16:06:50;;;;;;;3.20;1.20;;;22.30;40.40;;;;;;5030615;28;20021;-62
2021/05/06 16:09:16;;;;;;;2.65;1.30;;;22.30;40.50;;;;;;5029656;28;20378;-62
2021/05/06 16:11:41;;;;;;;2.85;1.20;;;22.30;40.50;;;;;;5028315;28;20040;-62
2021/05/06 16:14:07;;;;;;;3.65;1.35;;;22.30;40.50;;;;;;5036332;28;20025;-61
2021/05/06 16:16:33;;;;;;;3.15;1.33;;;22.20;40.50;;;;;;5034325;28;20030;-62